Time;durP1;ratioP1;P1;durP2;ratioP2;P2;SDS_P1;SDS_P2;PMS_P1;PMS_P2;Temp;Humidity;BMP_temperature;BMP_pressure;BME280_temperature;BME280_humidity;BME280_pressure;Samples;Min_cycle;Max_cycle;Signal;HPM_P1;HPM_P2
2023/09/13 00:02:10;;;;;;;11.30;10.80;;;;;;;;;;5078482;28;20017;-63
2023/09/13 00:04:35;;;;;;;11.20;10.70;;;;;;;;;;5082921;28;20040;-63
2023/09/13 00:07:00;;;;;;;11.45;10.95;;;;;;;;;;5084428;28;20016;-65
2023/09/13 00:09:26;;;;;;;11.10;10.60;;;;;;;;;;5088131;28;20147;-64
2023/09/13 00:11:51;;;;;;;10.95;10.45;;;;;;;;;;5088796;28;20044;-61
2023/09/13 00:14:16;;;;;;;11.05;10.55;;;;;;;;;;5088070;28;20541;-63
2023/09/13 00:16:42;;;;;;;10.95;10.45;;;;;;;;;;5083640;28;20070;-62
2023/09/13 00:19:07;;;;;;;10.80;10.30;;;;;;;;;;5087459;28;20031;-63
2023/09/13 00:21:32;;;;;;;11.45;10.95;;;;;;;;;;5081641;28;20074;-63
2023/09/13 00:23:58;;;;;;;11.10;10.60;;;;;;;;;;5091114;28;20024;-63
2023/09/13 00:26:25;;;;;;;11.23;10.73;;;;;;;;;;5083720;28;20522;-63
2023/09/13 00:28:50;;;;;;;11.10;10.60;;;;;;;;;;5077241;28;20509;-62
2023/09/13 00:31:16;;;;;;;10.95;10.45;;;;;;;;;;5084387;28;20130;-63
2023/09/13 00:33:41;;;;;;;11.30;10.80;;;;;;;;;;5087886;28;20016;-62
2023/09/13 00:36:07;;;;;;;11.18;10.68;;;;;;;;;;5085794;28;20179;-62
2023/09/13 00:38:32;;;;;;;10.88;10.38;;;;;;;;;;5084420;28;20020;-63
2023/09/13 00:40:57;;;;;;;10.95;10.45;;;;;;;;;;5089586;28;20467;-63
2023/09/13 00:43:24;;;;;;;10.98;10.48;;;;;;;;;;5087186;28;20383;-62
2023/09/13 00:45:50;;;;;;;11.20;10.70;;;;;;;;;;5086151;28;20111;-61
2023/09/13 00:48:17;;;;;;;10.95;10.45;;;;;;;;;;5079925;28;20151;-62
2023/09/13 00:50:42;;;;;;;11.15;10.65;;;;;;;;;;5089046;28;20051;-62
2023/09/13 00:53:08;;;;;;;11.13;10.63;;;;;;;;;;5083872;28;20408;-61
2023/09/13 00:55:34;;;;;;;11.05;10.55;;;;;;;;;;5086778;28;20020;-62
2023/09/13 00:58:00;;;;;;;11.05;10.55;;;;;;;;;;5083846;28;20107;-62
2023/09/13 01:00:27;;;;;;;11.15;10.65;;;;;;;;;;5080867;28;20305;-62
2023/09/13 01:02:53;;;;;;;11.30;10.80;;;;;;;;;;5083624;28;20033;-63
2023/09/13 01:05:18;;;;;;;11.00;10.50;;;;;;;;;;5081787;28;20028;-62
2023/09/13 01:07:44;;;;;;;11.25;10.75;;;;;;;;;;5088646;28;20074;-63
2023/09/13 01:10:11;;;;;;;10.90;10.40;;;;;;;;;;5087166;28;20032;-63
2023/09/13 01:12:36;;;;;;;11.10;10.60;;;;;;;;;;5083401;28;20020;-62
2023/09/13 01:15:06;;;;;;;11.10;10.60;;;;;;;;;;5087682;28;20483;-62
2023/09/13 01:17:39;;;;;;;11.23;10.73;;;;;;;;;;5086258;28;20123;-62
2023/09/13 01:20:13;;;;;;;11.38;10.88;;;;;;;;;;5089155;28;20560;-62
2023/09/13 01:22:59;;;;;;;11.32;10.82;;;;;;;;;;5081502;28;20021;-62
2023/09/13 01:25:44;;;;;;;11.38;10.88;;;;;;;;;;5085974;28;20020;-63
2023/09/13 01:28:36;;;;;;;10.77;10.27;;;;;;;;;;5082804;28;20456;-62
2023/09/13 01:31:06;;;;;;;11.25;10.75;;;;;;;;;;5069764;28;20028;-62
2023/09/13 01:33:31;;;;;;;11.13;10.63;;;;;;;;;;5087928;28;20122;-62
2023/09/13 01:35:57;;;;;;;11.18;10.68;;;;;;;;;;5086149;28;20107;-66
2023/09/13 01:38:23;;;;;;;11.00;10.50;;;;;;;;;;5081960;28;20464;-62
2023/09/13 01:40:50;;;;;;;11.30;10.80;;;;;;;;;;5078810;28;20028;-63
2023/09/13 01:43:16;;;;;;;11.15;10.65;;;;;;;;;;5083990;28;20103;-64
2023/09/13 01:45:42;;;;;;;11.35;10.85;;;;;;;;;;5084131;28;20149;-61
2023/09/13 01:48:08;;;;;;;11.07;10.57;;;;;;;;;;5088948;28;20476;-63
2023/09/13 01:50:34;;;;;;;11.10;10.60;;;;;;;;;;5082122;28;20043;-63
2023/09/13 01:53:03;;;;;;;11.32;10.82;;;;;;;;;;5081519;28;20112;-63
2023/09/13 01:55:29;;;;;;;11.35;10.85;;;;;;;;;;5082550;28;20422;-62
2023/09/13 01:57:54;;;;;;;11.20;10.70;;;;;;;;;;5087448;28;20112;-62
2023/09/13 02:00:20;;;;;;;11.25;10.75;;;;;;;;;;5085445;28;20099;-62
2023/09/13 02:02:45;;;;;;;11.23;10.73;;;;;;;;;;5082899;28;20039;-63
2023/09/13 02:05:12;;;;;;;11.20;10.70;;;;;;;;;;5082265;28;20109;-64
2023/09/13 02:07:37;;;;;;;10.88;10.38;;;;;;;;;;5081878;28;20368;-62
2023/09/13 02:10:03;;;;;;;11.43;10.93;;;;;;;;;;5084695;28;20088;-63
2023/09/13 02:12:28;;;;;;;11.13;10.63;;;;;;;;;;5083823;28;20086;-62
2023/09/13 02:14:54;;;;;;;11.18;10.68;;;;;;;;;;5083330;28;20424;-62
2023/09/13 02:17:20;;;;;;;11.18;10.68;;;;;;;;;;5087159;28;20037;-63
2023/09/13 02:19:48;;;;;;;11.43;10.93;;;;;;;;;;5083564;28;20104;-63
2023/09/13 02:22:13;;;;;;;11.65;11.15;;;;;;;;;;5082319;28;20580;-63
2023/09/13 02:24:38;;;;;;;11.73;11.23;;;;;;;;;;5085134;28;20051;-63
2023/09/13 02:27:04;;;;;;;11.90;11.40;;;;;;;;;;5081956;28;20027;-63
2023/09/13 02:29:29;;;;;;;11.43;10.93;;;;;;;;;;5088321;28;20028;-63
2023/09/13 02:31:54;;;;;;;11.95;11.43;;;;;;;;;;5083975;28;20160;-62
2023/09/13 02:34:19;;;;;;;11.20;10.70;;;;;;;;;;5082279;28;20084;-63
2023/09/13 02:36:45;;;;;;;11.00;10.50;;;;;;;;;;5084583;28;20020;-63
2023/09/13 02:39:29;;;;;;;10.88;10.38;;;;;;;;;;5085904;28;20151;-63
2023/09/13 02:41:54;;;;;;;11.17;10.67;;;;;;;;;;5084598;28;20487;-62
2023/09/13 02:44:20;;;;;;;10.85;10.35;;;;;;;;;;5081982;28;20036;-62
2023/09/13 02:46:45;;;;;;;11.27;10.77;;;;;;;;;;5088995;28;20028;-61
2023/09/13 02:49:10;;;;;;;10.90;10.40;;;;;;;;;;5085394;28;20021;-63
2023/09/13 02:51:36;;;;;;;11.13;10.63;;;;;;;;;;5082371;28;20017;-62
2023/09/13 02:54:01;;;;;;;11.35;10.85;;;;;;;;;;5085728;28;20465;-63
2023/09/13 02:56:26;;;;;;;11.20;10.70;;;;;;;;;;5086443;28;20625;-63
2023/09/13 02:58:51;;;;;;;11.82;11.32;;;;;;;;;;5089900;28;20027;-63
2023/09/13 03:01:17;;;;;;;11.75;11.25;;;;;;;;;;5086013;28;20030;-63
2023/09/13 03:03:42;;;;;;;11.70;11.20;;;;;;;;;;5082172;28;20020;-61
2023/09/13 03:06:10;;;;;;;11.80;11.30;;;;;;;;;;5078673;28;20466;-62
2023/09/13 03:08:35;;;;;;;11.20;10.70;;;;;;;;;;5085724;28;20538;-62
2023/09/13 03:11:09;;;;;;;11.13;10.63;;;;;;;;;;5080000;28;20111;-64
2023/09/13 03:13:35;;;;;;;10.95;10.45;;;;;;;;;;5084897;28;20028;-61
2023/09/13 03:16:00;;;;;;;11.68;11.18;;;;;;;;;;5083471;28;20495;-64
2023/09/13 03:18:25;;;;;;;11.00;10.50;;;;;;;;;;5087196;28;20093;-62
2023/09/13 03:20:51;;;;;;;11.05;10.55;;;;;;;;;;5084982;28;20033;-62
2023/09/13 03:23:17;;;;;;;10.77;10.27;;;;;;;;;;5081364;28;20466;-63
2023/09/13 03:25:42;;;;;;;11.27;10.77;;;;;;;;;;5086085;28;20043;-63
2023/09/13 03:28:08;;;;;;;11.02;10.52;;;;;;;;;;5081725;28;20455;-62
2023/09/13 03:30:34;;;;;;;11.57;11.07;;;;;;;;;;5086686;28;20028;-61
2023/09/13 03:32:59;;;;;;;11.20;10.70;;;;;;;;;;5082654;28;20023;-62
2023/09/13 03:35:25;;;;;;;11.25;10.75;;;;;;;;;;5084762;28;20016;-63
2023/09/13 03:37:51;;;;;;;11.52;11.02;;;;;;;;;;5081986;28;20044;-63
2023/09/13 03:40:16;;;;;;;11.30;10.80;;;;;;;;;;5079202;28;20081;-62
2023/09/13 03:42:41;;;;;;;11.25;10.75;;;;;;;;;;5087950;28;20381;-63
2023/09/13 03:45:07;;;;;;;11.07;10.57;;;;;;;;;;5085860;28;20024;-62
2023/09/13 03:47:32;;;;;;;11.18;10.68;;;;;;;;;;5081538;28;20124;-63
2023/09/13 03:49:58;;;;;;;11.23;10.73;;;;;;;;;;5092882;28;20028;-64
2023/09/13 03:52:23;;;;;;;11.18;10.68;;;;;;;;;;5090459;28;20047;-62
2023/09/13 03:54:48;;;;;;;11.15;10.65;;;;;;;;;;5090510;28;20020;-62
2023/09/13 03:57:13;;;;;;;11.70;11.20;;;;;;;;;;5089312;28;20029;-62
2023/09/13 03:59:39;;;;;;;11.30;10.80;;;;;;;;;;5084312;28;20034;-61
2023/09/13 04:02:05;;;;;;;12.07;11.50;;;;;;;;;;5086965;28;20032;-61
2023/09/13 04:04:30;;;;;;;11.27;10.77;;;;;;;;;;5089734;28;20044;-62
2023/09/13 04:06:55;;;;;;;11.45;10.95;;;;;;;;;;5078264;28;20086;-62
2023/09/13 04:09:22;;;;;;;11.00;10.50;;;;;;;;;;5089651;28;20030;-61
2023/09/13 04:11:48;;;;;;;11.02;10.52;;;;;;;;;;5088014;28;20048;-62
2023/09/13 04:14:13;;;;;;;11.10;10.60;;;;;;;;;;5089027;28;20054;-62
2023/09/13 04:16:38;;;;;;;10.82;10.32;;;;;;;;;;5087208;28;20075;-62
2023/09/13 04:19:03;;;;;;;11.80;11.30;;;;;;;;;;5089106;28;20028;-62
2023/09/13 04:21:29;;;;;;;11.38;10.88;;;;;;;;;;5088729;28;20030;-63
2023/09/13 04:23:54;;;;;;;11.55;11.05;;;;;;;;;;5088097;28;20044;-62
2023/09/13 04:26:21;;;;;;;11.77;11.27;;;;;;;;;;5088440;28;20024;-61
2023/09/13 04:28:47;;;;;;;11.25;10.75;;;;;;;;;;5083092;28;20099;-62
2023/09/13 04:31:12;;;;;;;11.77;11.27;;;;;;;;;;5082176;28;20440;-63
2023/09/13 04:33:47;;;;;;;11.35;10.85;;;;;;;;;;5086387;28;20035;-62
2023/09/13 04:36:13;;;;;;;11.63;11.13;;;;;;;;;;5083643;28;20029;-62
2023/09/13 04:38:38;;;;;;;11.55;11.05;;;;;;;;;;5084074;28;20093;-61
2023/09/13 04:41:05;;;;;;;11.70;11.20;;;;;;;;;;5081703;28;20757;-64
2023/09/13 04:43:30;;;;;;;11.55;11.05;;;;;;;;;;5085197;28;20031;-61
2023/09/13 04:45:55;;;;;;;11.60;11.10;;;;;;;;;;5090822;28;20020;-61
2023/09/13 04:48:21;;;;;;;11.55;11.05;;;;;;;;;;5085471;28;20023;-61
2023/09/13 04:50:46;;;;;;;12.05;11.55;;;;;;;;;;5089689;28;20498;-60
2023/09/13 04:53:13;;;;;;;11.57;11.07;;;;;;;;;;5090438;28;20023;-62
2023/09/13 04:55:40;;;;;;;12.23;11.73;;;;;;;;;;5088455;28;20020;-62
2023/09/13 04:58:05;;;;;;;12.13;11.63;;;;;;;;;;5079349;28;20161;-61
2023/09/13 05:00:30;;;;;;;12.10;11.60;;;;;;;;;;5088496;28;20118;-61
2023/09/13 05:02:55;;;;;;;11.95;11.45;;;;;;;;;;5083297;28;20024;-62
2023/09/13 05:05:21;;;;;;;11.73;11.23;;;;;;;;;;5084246;28;20037;-62
2023/09/13 05:07:46;;;;;;;11.85;11.35;;;;;;;;;;5084169;28;20032;-62
2023/09/13 05:10:11;;;;;;;11.57;11.07;;;;;;;;;;5088723;28;20398;-61
2023/09/13 05:12:37;;;;;;;11.65;11.15;;;;;;;;;;5086618;28;20501;-61
2023/09/13 05:15:02;;;;;;;12.00;11.50;;;;;;;;;;5090623;28;20032;-62
2023/09/13 05:17:29;;;;;;;11.90;11.40;;;;;;;;;;5087303;28;20024;-61
2023/09/13 05:19:54;;;;;;;11.57;11.07;;;;;;;;;;5082005;28;20113;-62
2023/09/13 05:22:20;;;;;;;11.75;11.25;;;;;;;;;;5080481;28;20051;-61
2023/09/13 05:24:45;;;;;;;11.65;11.15;;;;;;;;;;5086097;28;20077;-62
2023/09/13 05:27:10;;;;;;;12.05;11.55;;;;;;;;;;5086258;28;20171;-61
2023/09/13 05:29:36;;;;;;;12.30;11.80;;;;;;;;;;5082064;27;20527;-62
2023/09/13 05:32:01;;;;;;;11.80;11.30;;;;;;;;;;5088730;28;20538;-63
2023/09/13 05:34:27;;;;;;;12.00;11.50;;;;;;;;;;5089002;28;20058;-63
2023/09/13 05:36:52;;;;;;;11.75;11.25;;;;;;;;;;5092819;28;20027;-63
2023/09/13 05:39:17;;;;;;;12.00;11.50;;;;;;;;;;5087984;28;20020;-63
2023/09/13 05:41:43;;;;;;;12.07;11.57;;;;;;;;;;5082687;28;20016;-63
2023/09/13 05:44:09;;;;;;;11.80;11.30;;;;;;;;;;5085785;28;20375;-63
2023/09/13 05:46:35;;;;;;;11.82;11.32;;;;;;;;;;5083033;28;20020;-63
2023/09/13 05:49:00;;;;;;;12.05;11.55;;;;;;;;;;5089361;28;20028;-63
2023/09/13 05:51:26;;;;;;;11.93;11.43;;;;;;;;;;5090087;28;20058;-62
2023/09/13 05:53:51;;;;;;;12.20;11.70;;;;;;;;;;5079533;28;20108;-64
2023/09/13 05:56:17;;;;;;;12.07;11.57;;;;;;;;;;5087521;28;20518;-61
2023/09/13 05:58:43;;;;;;;12.13;11.63;;;;;;;;;;5087055;28;20023;-63
2023/09/13 06:01:09;;;;;;;12.20;11.70;;;;;;;;;;5079638;27;20094;-62
2023/09/13 06:03:35;;;;;;;12.07;11.57;;;;;;;;;;5087582;28;20095;-63
2023/09/13 06:06:00;;;;;;;12.00;11.50;;;;;;;;;;5086147;28;20139;-62
2023/09/13 06:08:25;;;;;;;11.88;11.38;;;;;;;;;;5084891;28;20032;-61
2023/09/13 06:10:51;;;;;;;11.98;11.48;;;;;;;;;;5089685;28;20357;-61
2023/09/13 06:13:16;;;;;;;11.60;11.10;;;;;;;;;;5080809;28;20525;-62
2023/09/13 06:15:41;;;;;;;11.63;11.13;;;;;;;;;;5083725;28;20043;-61
2023/09/13 06:18:07;;;;;;;11.82;11.32;;;;;;;;;;5080279;28;20089;-62
2023/09/13 06:20:32;;;;;;;11.80;11.30;;;;;;;;;;5082019;28;20021;-62
2023/09/13 06:22:58;;;;;;;11.88;11.38;;;;;;;;;;5087140;28;20020;-62
2023/09/13 06:25:23;;;;;;;12.00;11.50;;;;;;;;;;5082237;28;20094;-61
2023/09/13 06:27:49;;;;;;;11.90;11.40;;;;;;;;;;5082913;28;20081;-61
2023/09/13 06:30:14;;;;;;;11.90;11.40;;;;;;;;;;5087155;28;20022;-62
2023/09/13 06:32:40;;;;;;;12.07;11.57;;;;;;;;;;5083622;28;20024;-62
2023/09/13 06:35:05;;;;;;;11.90;11.40;;;;;;;;;;5083191;28;20035;-62
2023/09/13 06:37:31;;;;;;;11.80;11.30;;;;;;;;;;5082545;28;20475;-62
2023/09/13 06:39:56;;;;;;;12.02;11.52;;;;;;;;;;5081484;28;20028;-61
2023/09/13 06:42:21;;;;;;;11.93;11.43;;;;;;;;;;5088485;28;20017;-63
2023/09/13 06:44:47;;;;;;;12.20;11.70;;;;;;;;;;5083079;28;20635;-62
2023/09/13 06:47:12;;;;;;;11.93;11.43;;;;;;;;;;5083605;28;20012;-63
2023/09/13 06:49:37;;;;;;;12.23;11.73;;;;;;;;;;5090606;28;20024;-63
2023/09/13 06:52:03;;;;;;;12.02;11.52;;;;;;;;;;5081569;28;20038;-62
2023/09/13 06:54:28;;;;;;;12.07;11.57;;;;;;;;;;5086949;28;20090;-64
2023/09/13 06:56:53;;;;;;;12.07;11.57;;;;;;;;;;5089813;28;20034;-63
2023/09/13 06:59:22;;;;;;;11.80;11.30;;;;;;;;;;5085414;28;20435;-62
2023/09/13 07:01:47;;;;;;;12.07;11.57;;;;;;;;;;5080158;28;20292;-64
2023/09/13 07:04:13;;;;;;;12.20;11.70;;;;;;;;;;5088406;28;20044;-61
2023/09/13 07:06:39;;;;;;;12.38;11.88;;;;;;;;;;5088524;28;20821;-64
2023/09/13 07:09:04;;;;;;;12.18;11.68;;;;;;;;;;5085152;28;20040;-62
2023/09/13 07:11:29;;;;;;;12.13;11.63;;;;;;;;;;5085520;28;20059;-63
2023/09/13 07:13:55;;;;;;;12.30;11.80;;;;;;;;;;5088605;28;20019;-63
2023/09/13 07:16:21;;;;;;;12.20;11.70;;;;;;;;;;5073926;28;20795;-65
2023/09/13 07:18:47;;;;;;;12.55;11.95;;;;;;;;;;5081052;28;20024;-64
2023/09/13 07:21:12;;;;;;;12.35;11.85;;;;;;;;;;5082917;28;20027;-65
2023/09/13 07:23:37;;;;;;;12.20;11.70;;;;;;;;;;5075952;28;20032;-64
2023/09/13 07:26:03;;;;;;;12.20;11.70;;;;;;;;;;5076551;28;20287;-66
2023/09/13 07:28:28;;;;;;;12.13;11.63;;;;;;;;;;5076848;28;20122;-64
2023/09/13 07:30:54;;;;;;;12.10;11.60;;;;;;;;;;5076412;28;20071;-64
2023/09/13 07:33:19;;;;;;;12.20;11.70;;;;;;;;;;5077244;28;20059;-64
2023/09/13 07:35:44;;;;;;;12.07;11.57;;;;;;;;;;5081149;28;20020;-63
2023/09/13 07:38:10;;;;;;;12.02;11.52;;;;;;;;;;5077734;28;20105;-64
2023/09/13 07:40:37;;;;;;;12.45;11.88;;;;;;;;;;5078944;28;20043;-67
2023/09/13 07:43:02;;;;;;;12.35;11.82;;;;;;;;;;5081033;28;20036;-66
2023/09/13 07:45:31;;;;;;;12.05;11.55;;;;;;;;;;5077942;28;20036;-66
2023/09/13 07:47:57;;;;;;;12.05;11.55;;;;;;;;;;5079605;28;20516;-65
2023/09/13 07:50:42;;;;;;;11.98;11.48;;;;;;;;;;5080541;28;20059;-65
2023/09/13 07:53:07;;;;;;;11.93;11.43;;;;;;;;;;5084459;28;20020;-63
2023/09/13 07:55:33;;;;;;;12.43;11.90;;;;;;;;;;5078744;28;20033;-65
2023/09/13 07:57:58;;;;;;;12.15;11.65;;;;;;;;;;5076095;28;20027;-64
2023/09/13 08:00:24;;;;;;;12.50;11.90;;;;;;;;;;5079704;28;20042;-64
2023/09/13 08:02:49;;;;;;;12.13;11.63;;;;;;;;;;5081092;28;20483;-64
2023/09/13 08:05:15;;;;;;;12.00;11.50;;;;;;;;;;5076639;28;20319;-64
2023/09/13 08:07:41;;;;;;;11.93;11.43;;;;;;;;;;5079240;28;20039;-63
2023/09/13 08:10:06;;;;;;;12.27;11.68;;;;;;;;;;5080978;28;20089;-64
2023/09/13 08:12:31;;;;;;;12.00;11.50;;;;;;;;;;5086662;28;20035;-64
2023/09/13 08:14:57;;;;;;;12.40;11.90;;;;;;;;;;5082401;28;20016;-64
2023/09/13 08:17:22;;;;;;;12.30;11.80;;;;;;;;;;5076626;28;20032;-64
2023/09/13 08:19:48;;;;;;;12.40;11.90;;;;;;;;;;5084503;28;20281;-65
2023/09/13 08:22:13;;;;;;;12.02;11.50;;;;;;;;;;5088773;28;20024;-64
2023/09/13 08:24:39;;;;;;;12.40;11.90;;;;;;;;;;5082583;28;20956;-65
2023/09/13 08:27:04;;;;;;;12.17;11.67;;;;;;;;;;5081684;28;20028;-64
2023/09/13 08:29:30;;;;;;;12.25;11.75;;;;;;;;;;5080800;28;20790;-63
2023/09/13 08:31:56;;;;;;;12.55;12.00;;;;;;;;;;5081986;28;20146;-64
2023/09/13 08:34:22;;;;;;;11.93;11.43;;;;;;;;;;5085572;28;20028;-65
2023/09/13 08:36:49;;;;;;;11.88;11.38;;;;;;;;;;5086104;28;20012;-66
2023/09/13 08:39:14;;;;;;;12.10;11.60;;;;;;;;;;5084805;28;20051;-66
2023/09/13 08:41:39;;;;;;;11.80;11.30;;;;;;;;;;5089246;28;20174;-67
2023/09/13 08:44:05;;;;;;;11.98;11.48;;;;;;;;;;5087028;28;20016;-64
2023/09/13 08:46:31;;;;;;;11.60;11.10;;;;;;;;;;5087400;28;20024;-63
2023/09/13 08:48:57;;;;;;;12.13;11.63;;;;;;;;;;5085450;28;20020;-65
2023/09/13 08:51:23;;;;;;;12.45;11.90;;;;;;;;;;5081966;28;20115;-66
2023/09/13 08:53:49;;;;;;;12.23;11.73;;;;;;;;;;5088345;28;20498;-65
2023/09/13 08:56:15;;;;;;;12.00;11.50;;;;;;;;;;5084537;28;20035;-65
2023/09/13 08:58:40;;;;;;;12.10;11.60;;;;;;;;;;5082455;28;20037;-67
2023/09/13 09:01:09;;;;;;;12.07;11.57;;;;;;;;;;5083397;28;20036;-67
2023/09/13 09:03:34;;;;;;;11.82;11.32;;;;;;;;;;5083622;28;20028;-64
2023/09/13 09:06:00;;;;;;;12.07;11.57;;;;;;;;;;5081673;28;20127;-64
2023/09/13 09:08:26;;;;;;;11.98;11.48;;;;;;;;;;5084976;28;20414;-65
2023/09/13 09:10:56;;;;;;;12.32;11.80;;;;;;;;;;5085226;28;20039;-64
2023/09/13 09:13:24;;;;;;;11.88;11.38;;;;;;;;;;5083931;28;21232;-63
2023/09/13 09:15:49;;;;;;;12.50;11.90;;;;;;;;;;5083636;28;20059;-63
2023/09/13 09:18:15;;;;;;;12.02;11.52;;;;;;;;;;5080443;28;20017;-63
2023/09/13 09:20:41;;;;;;;12.20;11.70;;;;;;;;;;5086017;28;20020;-63
2023/09/13 09:23:07;;;;;;;12.65;12.05;;;;;;;;;;5085834;28;20031;-63
2023/09/13 09:25:32;;;;;;;12.10;11.60;;;;;;;;;;5083921;28;20015;-64
2023/09/13 09:27:58;;;;;;;12.23;11.73;;;;;;;;;;5084099;28;20070;-65
2023/09/13 09:30:31;;;;;;;12.07;11.57;;;;;;;;;;5082799;28;20083;-63
2023/09/13 09:33:03;;;;;;;12.48;11.90;;;;;;;;;;5082555;28;20046;-64
2023/09/13 09:35:38;;;;;;;11.98;11.48;;;;;;;;;;5089650;28;20031;-62
2023/09/13 09:38:03;;;;;;;12.07;11.57;;;;;;;;;;5085441;28;20020;-63
2023/09/13 09:40:38;;;;;;;11.90;11.40;;;;;;;;;;5088408;28;20510;-66
2023/09/13 09:43:03;;;;;;;12.23;11.73;;;;;;;;;;5084480;28;20042;-65
2023/09/13 09:45:29;;;;;;;12.00;11.50;;;;;;;;;;5082658;28;20897;-65
2023/09/13 09:47:55;;;;;;;11.85;11.35;;;;;;;;;;5083099;28;20063;-63
2023/09/13 09:50:21;;;;;;;12.10;11.60;;;;;;;;;;5084080;28;20495;-63
2023/09/13 09:52:52;;;;;;;11.70;11.20;;;;;;;;;;5081585;28;20052;-63
2023/09/13 09:55:22;;;;;;;11.85;11.35;;;;;;;;;;5077729;28;20027;-62
2023/09/13 09:57:48;;;;;;;11.85;11.35;;;;;;;;;;5082465;28;20027;-61
2023/09/13 10:00:14;;;;;;;11.80;11.30;;;;;;;;;;5074665;28;20024;-66
2023/09/13 10:02:39;;;;;;;11.60;11.10;;;;;;;;;;5080952;27;20038;-60
2023/09/13 10:05:05;;;;;;;12.10;11.60;;;;;;;;;;5080161;28;20051;-61
2023/09/13 10:07:30;;;;;;;12.20;11.70;;;;;;;;;;5084408;28;20058;-62
2023/09/13 10:09:56;;;;;;;11.70;11.20;;;;;;;;;;5083353;28;20106;-62
2023/09/13 10:12:21;;;;;;;11.70;11.20;;;;;;;;;;5082090;28;20024;-63
2023/09/13 10:14:46;;;;;;;11.93;11.43;;;;;;;;;;5085004;28;20387;-61
2023/09/13 10:17:12;;;;;;;11.52;11.02;;;;;;;;;;5077519;28;20539;-62
2023/09/13 10:19:38;;;;;;;11.68;11.18;;;;;;;;;;5080947;28;20444;-61
2023/09/13 10:22:04;;;;;;;12.70;12.10;;;;;;;;;;5082828;28;20058;-62
2023/09/13 10:24:39;;;;;;;11.73;11.23;;;;;;;;;;5084786;28;20120;-62
2023/09/13 10:27:07;;;;;;;11.55;11.05;;;;;;;;;;5086785;28;20737;-63
2023/09/13 10:29:40;;;;;;;11.60;11.10;;;;;;;;;;5079740;28;20020;-61
2023/09/13 10:32:11;;;;;;;11.73;11.23;;;;;;;;;;5077696;28;20023;-63
2023/09/13 10:34:41;;;;;;;11.98;11.48;;;;;;;;;;5077272;28;20021;-63
2023/09/13 10:37:06;;;;;;;11.82;11.32;;;;;;;;;;5080311;28;20032;-62
2023/09/13 10:39:37;;;;;;;11.73;11.23;;;;;;;;;;5085322;28;20023;-62
2023/09/13 10:42:08;;;;;;;11.80;11.30;;;;;;;;;;5087052;28;20100;-61
2023/09/13 10:44:34;;;;;;;11.80;11.30;;;;;;;;;;5084587;28;20023;-63
2023/09/13 10:47:00;;;;;;;11.90;11.40;;;;;;;;;;5085615;28;20030;-62
2023/09/13 10:49:25;;;;;;;11.55;11.05;;;;;;;;;;5082866;28;20012;-62
2023/09/13 10:51:51;;;;;;;11.73;11.23;;;;;;;;;;5083235;28;20048;-62
2023/09/13 10:54:18;;;;;;;11.60;11.10;;;;;;;;;;5082268;28;20024;-63
2023/09/13 10:56:43;;;;;;;11.48;10.98;;;;;;;;;;5086293;28;20023;-62
2023/09/13 10:59:10;;;;;;;11.48;10.98;;;;;;;;;;5083274;28;20020;-61
2023/09/13 11:01:36;;;;;;;11.50;11.00;;;;;;;;;;5082689;28;22224;-62
2023/09/13 11:04:03;;;;;;;11.25;10.75;;;;;;;;;;5087470;28;20032;-62
2023/09/13 11:06:29;;;;;;;11.35;10.85;;;;;;;;;;5088789;28;20139;-61
2023/09/13 11:09:03;;;;;;;12.20;11.70;;;;;;;;;;5082520;28;20036;-61
2023/09/13 11:11:29;;;;;;;11.50;11.00;;;;;;;;;;5081081;28;20029;-62
2023/09/13 11:13:57;;;;;;;11.35;10.85;;;;;;;;;;5083196;28;20039;-63
2023/09/13 11:16:23;;;;;;;11.43;10.93;;;;;;;;;;5085396;28;20494;-62
2023/09/13 11:18:52;;;;;;;11.30;10.80;;;;;;;;;;5084153;28;20024;-63
2023/09/13 11:21:25;;;;;;;11.32;10.82;;;;;;;;;;5081743;28;20034;-63
2023/09/13 11:23:52;;;;;;;11.50;11.00;;;;;;;;;;5083844;28;20043;-62
2023/09/13 11:26:37;;;;;;;11.60;11.10;;;;;;;;;;5082209;28;20017;-63
2023/09/13 11:29:19;;;;;;;11.23;10.73;;;;;;;;;;5081754;28;20024;-63
2023/09/13 11:32:00;;;;;;;11.45;10.95;;;;;;;;;;5088377;28;20020;-61
2023/09/13 11:34:26;;;;;;;11.63;11.13;;;;;;;;;;5074400;28;20027;-61
2023/09/13 11:37:10;;;;;;;11.10;10.60;;;;;;;;;;5084871;28;20031;-61
2023/09/13 11:39:36;;;;;;;11.20;10.70;;;;;;;;;;5084282;28;20555;-61
2023/09/13 11:42:07;;;;;;;11.35;10.85;;;;;;;;;;5084401;28;20035;-62
2023/09/13 11:44:32;;;;;;;11.60;11.10;;;;;;;;;;5081569;28;20514;-63
2023/09/13 11:46:58;;;;;;;11.27;10.77;;;;;;;;;;5086333;28;20056;-63
2023/09/13 11:49:24;;;;;;;11.60;11.10;;;;;;;;;;5083849;28;20023;-63
2023/09/13 11:51:51;;;;;;;11.77;11.27;;;;;;;;;;5090147;28;20028;-62
2023/09/13 11:54:16;;;;;;;11.48;10.98;;;;;;;;;;5079697;28;20476;-62
2023/09/13 11:56:45;;;;;;;11.32;10.82;;;;;;;;;;5082564;28;20027;-61
2023/09/13 11:59:11;;;;;;;11.30;10.80;;;;;;;;;;5087306;28;20483;-61
2023/09/13 12:01:45;;;;;;;11.23;10.73;;;;;;;;;;5082063;28;20061;-62
2023/09/13 12:04:10;;;;;;;12.00;11.50;;;;;;;;;;5082232;28;20020;-63
2023/09/13 12:06:46;;;;;;;11.40;10.90;;;;;;;;;;5083053;28;20025;-61
2023/09/13 12:09:15;;;;;;;11.45;10.95;;;;;;;;;;5088516;28;20103;-61
2023/09/13 12:11:41;;;;;;;11.45;10.95;;;;;;;;;;5084618;28;20028;-62
2023/09/13 12:14:08;;;;;;;11.07;10.57;;;;;;;;;;5083277;28;20474;-62
2023/09/13 12:16:35;;;;;;;11.20;10.70;;;;;;;;;;5084244;28;20463;-63
2023/09/13 12:19:01;;;;;;;11.30;10.80;;;;;;;;;;5083141;28;20395;-62
2023/09/13 12:21:26;;;;;;;11.35;10.85;;;;;;;;;;5087924;28;20027;-62
2023/09/13 12:23:52;;;;;;;11.80;11.30;;;;;;;;;;5080497;28;20021;-64
2023/09/13 12:26:18;;;;;;;11.70;11.20;;;;;;;;;;5073143;28;20569;-65
2023/09/13 12:28:45;;;;;;;11.68;11.18;;;;;;;;;;5080068;28;20109;-65
2023/09/13 12:31:12;;;;;;;11.60;11.10;;;;;;;;;;5077444;28;20467;-64
2023/09/13 12:33:39;;;;;;;11.30;10.80;;;;;;;;;;5085006;28;20030;-65
2023/09/13 12:36:05;;;;;;;11.60;11.10;;;;;;;;;;5083421;28;20070;-67
2023/09/13 12:38:42;;;;;;;11.32;10.82;;;;;;;;;;5087789;28;20467;-67
2023/09/13 12:41:08;;;;;;;11.32;10.82;;;;;;;;;;5082484;28;20360;-66
2023/09/13 12:43:39;;;;;;;11.65;11.15;;;;;;;;;;5084708;28;20486;-66
2023/09/13 12:46:05;;;;;;;11.63;11.13;;;;;;;;;;5079158;28;20064;-62
2023/09/13 12:48:31;;;;;;;11.60;11.10;;;;;;;;;;5081768;28;20101;-65
2023/09/13 12:50:58;;;;;;;11.95;11.45;;;;;;;;;;5086767;28;20123;-64
2023/09/13 12:53:27;;;;;;;12.18;11.68;;;;;;;;;;5081019;28;20164;-66
2023/09/13 12:55:52;;;;;;;11.77;11.27;;;;;;;;;;5086319;28;20115;-65
2023/09/13 12:58:18;;;;;;;11.40;10.90;;;;;;;;;;5082018;28;20163;-64
2023/09/13 13:00:59;;;;;;;11.43;10.93;;;;;;;;;;5085124;28;20051;-65
2023/09/13 13:03:28;;;;;;;11.70;11.20;;;;;;;;;;5082167;28;20031;-66
2023/09/13 13:05:54;;;;;;;11.52;11.02;;;;;;;;;;5088783;28;20040;-64
2023/09/13 13:08:19;;;;;;;11.20;10.70;;;;;;;;;;5085015;28;20476;-67
2023/09/13 13:10:55;;;;;;;11.38;10.88;;;;;;;;;;5079093;28;20125;-67
2023/09/13 13:13:41;;;;;;;11.32;10.82;;;;;;;;;;5087254;28;20429;-66
2023/09/13 13:16:16;;;;;;;11.68;11.18;;;;;;;;;;5083657;28;20083;-65
2023/09/13 13:18:48;;;;;;;11.73;11.23;;;;;;;;;;5084217;28;20012;-65
2023/09/13 13:21:17;;;;;;;12.00;11.50;;;;;;;;;;5076465;28;20024;-67
2023/09/13 13:23:46;;;;;;;11.95;11.45;;;;;;;;;;5076575;28;20055;-72
2023/09/13 13:26:11;;;;;;;11.60;11.10;;;;;;;;;;5079074;28;20045;-66
2023/09/13 13:28:38;;;;;;;11.60;11.10;;;;;;;;;;5084114;28;20099;-67
2023/09/13 13:31:05;;;;;;;11.43;10.93;;;;;;;;;;5083621;28;20020;-65
2023/09/13 13:33:30;;;;;;;11.50;11.00;;;;;;;;;;5081278;28;20467;-67
2023/09/13 13:35:57;;;;;;;11.48;10.98;;;;;;;;;;5079991;28;20031;-66
2023/09/13 13:38:24;;;;;;;11.65;11.15;;;;;;;;;;5079438;28;20344;-65
2023/09/13 13:40:49;;;;;;;11.57;11.07;;;;;;;;;;5081580;28;20028;-65
2023/09/13 13:43:15;;;;;;;11.95;11.45;;;;;;;;;;5082224;28;20414;-65
2023/09/13 13:45:40;;;;;;;11.70;11.20;;;;;;;;;;5084000;28;20016;-65
2023/09/13 13:48:05;;;;;;;11.90;11.40;;;;;;;;;;5082395;28;20502;-65
2023/09/13 13:50:31;;;;;;;11.65;11.15;;;;;;;;;;5080349;28;20576;-65
2023/09/13 13:52:56;;;;;;;11.50;11.00;;;;;;;;;;5081829;28;20043;-65
2023/09/13 13:55:21;;;;;;;11.80;11.30;;;;;;;;;;5079616;28;20095;-63
2023/09/13 13:57:47;;;;;;;11.38;10.88;;;;;;;;;;5087120;28;20100;-64
2023/09/13 14:00:13;;;;;;;11.55;11.05;;;;;;;;;;5082947;28;20711;-65
2023/09/13 14:02:38;;;;;;;12.27;11.77;;;;;;;;;;5080460;28;20073;-63
2023/09/13 14:05:04;;;;;;;11.80;11.30;;;;;;;;;;5079010;28;20040;-63
2023/09/13 14:07:30;;;;;;;11.88;11.38;;;;;;;;;;5079475;28;21407;-65
2023/09/13 14:09:55;;;;;;;11.60;11.10;;;;;;;;;;5082645;28;20866;-64
2023/09/13 14:12:20;;;;;;;11.60;11.10;;;;;;;;;;5082728;28;20016;-65
2023/09/13 14:14:46;;;;;;;11.63;11.13;;;;;;;;;;5079866;28;20031;-65